createdAt,value
2023-03-17T00:00:06.705Z,7.70
2023-03-17T00:01:14.833Z,7.70
2023-03-17T00:02:16.919Z,7.70
2023-03-17T00:03:26.191Z,7.70
2023-03-17T00:04:28.125Z,7.70
2023-03-17T00:05:36.934Z,7.60
2023-03-17T00:06:40.361Z,7.60
2023-03-17T00:07:44.039Z,7.60
2023-03-17T00:08:48.329Z,7.60
2023-03-17T00:09:51.443Z,7.60
2023-03-17T00:10:53.745Z,7.60
2023-03-17T00:11:55.771Z,7.60
2023-03-17T00:12:57.696Z,7.50
2023-03-17T00:13:59.485Z,7.60
2023-03-17T00:15:02.403Z,7.50
2023-03-17T00:16:07.474Z,7.50
2023-03-17T00:17:11.974Z,7.50
2023-03-17T00:18:16.528Z,7.50
2023-03-17T00:19:43.511Z,7.50
2023-03-17T00:20:47.186Z,7.50
2023-03-17T00:21:50.211Z,7.50
2023-03-17T00:22:52.823Z,7.40
2023-03-17T00:23:55.454Z,7.40
2023-03-17T00:24:57.415Z,7.40
2023-03-17T00:25:59.376Z,7.40
2023-03-17T00:27:01.414Z,7.40
2023-03-17T00:28:04.745Z,7.40
2023-03-17T00:29:07.041Z,7.40
2023-03-17T00:30:11.010Z,7.30
2023-03-17T00:31:21.176Z,7.30
2023-03-17T00:32:23.177Z,7.30
2023-03-17T00:33:28.809Z,7.30
2023-03-17T00:34:30.743Z,7.30
2023-03-17T00:35:33.684Z,7.30
2023-03-17T00:36:36.162Z,7.30
2023-03-17T00:37:39.915Z,7.30
2023-03-17T00:38:43.043Z,7.30
2023-03-17T00:39:45.387Z,7.30
2023-03-17T00:40:48.039Z,7.30
2023-03-17T00:41:49.918Z,7.30
2023-03-17T00:42:54.396Z,7.30
2023-03-17T00:43:57.327Z,7.30
2023-03-17T00:44:59.232Z,7.30
2023-03-17T00:46:03.109Z,7.30
2023-03-17T00:47:05.072Z,7.20
2023-03-17T00:48:21.263Z,7.20
2023-03-17T00:49:24.986Z,7.20
2023-03-17T00:50:29.465Z,7.20
2023-03-17T00:51:31.507Z,7.20
2023-03-17T00:52:34.153Z,7.20
2023-03-17T00:53:36.415Z,7.20
2023-03-17T00:54:38.427Z,7.20
2023-03-17T00:55:41.230Z,7.20
2023-03-17T00:56:45.657Z,7.20
2023-03-17T00:57:49.084Z,7.10
2023-03-17T00:58:50.861Z,7.10
2023-03-17T00:59:54.113Z,7.10
2023-03-17T01:00:57.016Z,7.10
2023-03-17T01:01:59.410Z,7.10
2023-03-17T01:03:01.588Z,7.10
2023-03-17T01:04:04.794Z,7.10
2023-03-17T01:05:07.189Z,7.10
2023-03-17T01:06:13.486Z,7.00
2023-03-17T01:07:16.113Z,7.00
2023-03-17T01:08:18.890Z,7.00
2023-03-17T01:09:26.389Z,7.00
2023-03-17T01:10:29.643Z,7.00
2023-03-17T01:11:32.052Z,7.10
2023-03-17T01:12:34.250Z,7.10
2023-03-17T01:13:36.660Z,7.10
2023-03-17T01:14:39.420Z,7.10
2023-03-17T01:15:49.653Z,7.10
2023-03-17T01:16:55.929Z,7.10
2023-03-17T01:17:58.904Z,7.10
2023-03-17T01:19:01.198Z,7.10
2023-03-17T01:20:05.523Z,7.10
2023-03-17T01:21:07.929Z,7.10
2023-03-17T01:22:10.221Z,7.10
2023-03-17T01:23:12.795Z,7.00
2023-03-17T01:24:14.897Z,7.10
2023-03-17T01:25:18.102Z,7.00
2023-03-17T01:26:19.971Z,7.00
2023-03-17T01:27:21.993Z,7.00
2023-03-17T01:28:24.633Z,7.00
2023-03-17T01:29:27.142Z,7.00
2023-03-17T01:30:35.066Z,7.00
2023-03-17T01:31:37.449Z,7.00
2023-03-17T01:32:40.845Z,7.00
2023-03-17T01:33:42.720Z,7.00
2023-03-17T01:34:45.733Z,7.00
2023-03-17T01:35:47.509Z,7.00
2023-03-17T01:36:50.472Z,7.00
2023-03-17T01:37:53.121Z,7.00
2023-03-17T01:38:55.106Z,7.00
2023-03-17T01:39:57.173Z,6.90
2023-03-17T01:41:01.278Z,7.00
2023-03-17T01:42:04.244Z,7.00
2023-03-17T01:43:09.038Z,6.90
2023-03-17T01:44:17.132Z,6.90
2023-03-17T01:45:56.553Z,6.90
2023-03-17T01:46:58.871Z,6.90
2023-03-17T01:48:00.716Z,6.90
2023-03-17T01:49:21.220Z,6.90
2023-03-17T01:50:23.802Z,6.80
2023-03-17T01:51:39.597Z,6.80
2023-03-17T01:52:41.737Z,6.80
2023-03-17T01:53:46.022Z,6.80
2023-03-17T01:54:55.669Z,6.80
2023-03-17T01:55:58.132Z,6.80
2023-03-17T01:57:07.640Z,6.70
2023-03-17T01:58:10.177Z,6.70
2023-03-17T01:59:19.151Z,6.70
2023-03-17T02:00:24.138Z,6.70
2023-03-17T02:01:33.479Z,6.70
2023-03-17T02:02:44.260Z,6.60
2023-03-17T02:03:46.137Z,6.60
2023-03-17T02:04:49.504Z,6.60
2023-03-17T02:05:52.505Z,6.60
2023-03-17T02:06:58.239Z,6.60
2023-03-17T02:08:00.781Z,6.60
2023-03-17T02:09:04.075Z,6.60
2023-03-17T02:10:07.898Z,6.60
2023-03-17T02:11:12.956Z,6.50
2023-03-17T02:12:15.716Z,6.50
2023-03-17T02:13:17.537Z,6.50
2023-03-17T02:14:20.497Z,6.50
2023-03-17T02:15:23.305Z,6.50
2023-03-17T02:16:26.845Z,6.40
2023-03-17T02:17:29.245Z,6.40
2023-03-17T02:18:31.959Z,6.40
2023-03-17T02:19:34.261Z,6.40
2023-03-17T02:20:36.084Z,6.40
2023-03-17T02:21:39.408Z,6.40
2023-03-17T02:22:44.169Z,6.40
2023-03-17T02:23:48.454Z,6.30
2023-03-17T02:24:57.004Z,6.30
2023-03-17T02:25:59.082Z,6.40
2023-03-17T02:27:07.048Z,6.30
2023-03-17T02:28:14.267Z,6.30
2023-03-17T02:29:16.820Z,6.30
2023-03-17T02:30:21.682Z,6.30
2023-03-17T02:31:26.797Z,6.30
2023-03-17T02:32:29.221Z,6.30
2023-03-17T02:33:31.921Z,6.30
2023-03-17T02:34:34.561Z,6.30
2023-03-17T02:35:36.916Z,6.30
2023-03-17T02:36:38.980Z,6.30
2023-03-17T02:37:42.096Z,6.30
2023-03-17T02:38:43.856Z,6.30
2023-03-17T02:39:46.558Z,6.30
2023-03-17T02:40:48.411Z,6.30
2023-03-17T02:41:50.738Z,6.30
2023-03-17T02:42:54.107Z,6.30
2023-03-17T02:43:56.890Z,6.30
2023-03-17T02:44:58.893Z,6.30
2023-03-17T02:46:01.290Z,6.30
2023-03-17T02:47:04.771Z,6.30
2023-03-17T02:48:07.244Z,6.30
2023-03-17T02:49:09.923Z,6.30
2023-03-17T02:50:21.290Z,6.40
2023-03-17T02:51:23.077Z,6.40
2023-03-17T02:52:25.478Z,6.40
2023-03-17T02:53:27.364Z,6.40
2023-03-17T02:54:29.291Z,6.40
2023-03-17T02:55:32.271Z,6.40
2023-03-17T02:56:34.245Z,6.40
2023-03-17T02:57:36.399Z,6.40
2023-03-17T02:58:38.385Z,6.40
2023-03-17T02:59:40.520Z,6.40
2023-03-17T03:00:42.336Z,6.40
2023-03-17T03:01:44.267Z,6.40
2023-03-17T03:02:46.111Z,6.40
2023-03-17T03:03:48.257Z,6.50
2023-03-17T03:04:50.541Z,6.50
2023-03-17T03:05:53.149Z,6.50
2023-03-17T03:06:54.899Z,6.50
2023-03-17T03:07:56.842Z,6.50
2023-03-17T03:08:58.850Z,6.50
2023-03-17T03:10:02.387Z,6.50
2023-03-17T03:11:05.064Z,6.50
2023-03-17T03:12:09.934Z,6.60
2023-03-17T03:13:12.103Z,6.60
2023-03-17T03:14:14.285Z,6.60
2023-03-17T03:15:16.109Z,6.60
2023-03-17T03:16:18.293Z,6.60
2023-03-17T03:17:21.415Z,6.60
2023-03-17T03:18:23.573Z,6.60
2023-03-17T03:19:25.733Z,6.70
2023-03-17T03:20:30.564Z,6.70
2023-03-17T03:21:32.973Z,6.70
2023-03-17T03:22:34.863Z,6.70
2023-03-17T03:23:36.761Z,6.70
2023-03-17T03:24:38.587Z,6.70
2023-03-17T03:25:40.832Z,6.70
2023-03-17T03:26:42.722Z,6.70
2023-03-17T03:27:44.545Z,6.70
2023-03-17T03:28:46.305Z,6.70
2023-03-17T03:29:49.759Z,6.80
2023-03-17T03:30:51.680Z,6.70
2023-03-17T03:31:53.585Z,6.80
2023-03-17T03:32:55.383Z,6.70
2023-03-17T03:33:57.443Z,6.80
2023-03-17T03:34:59.211Z,6.80
2023-03-17T03:36:01.286Z,6.80
2023-03-17T03:37:03.111Z,6.80
2023-03-17T03:38:04.955Z,6.80
2023-03-17T03:39:08.051Z,6.80
2023-03-17T03:40:10.660Z,6.80
2023-03-17T03:41:13.178Z,6.90
2023-03-17T03:42:17.053Z,6.90
2023-03-17T03:43:23.507Z,6.90
2023-03-17T03:44:26.017Z,6.90
2023-03-17T03:45:28.753Z,6.90
2023-03-17T03:46:31.459Z,6.90
2023-03-17T03:47:33.375Z,7.00
2023-03-17T03:48:35.183Z,7.00
2023-03-17T03:49:37.402Z,7.00
2023-03-17T03:50:39.389Z,7.00
2023-03-17T03:51:41.623Z,7.00
2023-03-17T03:52:43.472Z,7.00
2023-03-17T03:53:45.440Z,7.00
2023-03-17T03:54:47.509Z,7.00
2023-03-17T03:55:49.437Z,7.00
2023-03-17T03:56:51.179Z,7.00
2023-03-17T03:57:53.061Z,7.00
2023-03-17T03:58:54.871Z,7.00
2023-03-17T03:59:58.256Z,7.00
2023-03-17T04:01:03.458Z,7.00
2023-03-17T04:02:06.232Z,7.00
2023-03-17T04:03:08.800Z,7.00
2023-03-17T04:04:10.597Z,7.00
2023-03-17T04:05:18.292Z,7.00
2023-03-17T04:06:20.065Z,7.00
2023-03-17T04:07:22.049Z,7.00
2023-03-17T04:08:24.170Z,7.00
2023-03-17T04:09:26.139Z,7.00
2023-03-17T04:10:29.095Z,7.00
2023-03-17T04:11:31.593Z,7.10
2023-03-17T04:12:33.710Z,7.10
2023-03-17T04:13:36.081Z,7.10
2023-03-17T04:14:37.873Z,7.10
2023-03-17T04:15:39.847Z,7.10
2023-03-17T04:16:43.585Z,7.10
2023-03-17T04:17:45.659Z,7.10
2023-03-17T04:18:47.935Z,7.10
2023-03-17T04:19:49.813Z,7.10
2023-03-17T04:20:51.724Z,7.10
2023-03-17T04:21:54.746Z,7.10
2023-03-17T04:22:57.825Z,7.10
2023-03-17T04:24:00.356Z,7.10
2023-03-17T04:25:03.380Z,7.10
2023-03-17T04:26:05.987Z,7.10
2023-03-17T04:27:08.157Z,7.10
2023-03-17T04:28:10.361Z,7.10
2023-03-17T04:29:15.959Z,7.00
2023-03-17T04:30:17.914Z,7.00
2023-03-17T04:31:19.771Z,7.00
2023-03-17T04:32:21.890Z,7.10
2023-03-17T04:33:23.708Z,7.00
2023-03-17T04:34:25.954Z,7.00
2023-03-17T04:35:28.133Z,7.00
2023-03-17T04:36:30.615Z,7.00
2023-03-17T04:37:34.721Z,7.10
2023-03-17T04:38:36.533Z,7.10
2023-03-17T04:39:38.554Z,7.10
2023-03-17T04:40:40.803Z,7.10
2023-03-17T04:41:43.305Z,7.10
2023-03-17T04:42:45.495Z,7.10
2023-03-17T04:43:47.884Z,7.10
2023-03-17T04:44:49.958Z,7.10
2023-03-17T04:45:52.165Z,7.10
2023-03-17T04:46:54.513Z,7.10
2023-03-17T04:47:56.273Z,7.10
2023-03-17T04:48:58.122Z,7.10
2023-03-17T04:49:59.882Z,7.10
2023-03-17T04:51:01.736Z,7.10
2023-03-17T04:52:03.885Z,7.00
2023-03-17T04:53:06.754Z,7.10
2023-03-17T04:54:08.960Z,7.10
2023-03-17T04:55:12.030Z,7.10
2023-03-17T04:56:13.789Z,7.10
2023-03-17T04:57:15.765Z,7.10
2023-03-17T04:58:29.872Z,7.10
2023-03-17T04:59:33.868Z,7.00
2023-03-17T05:00:39.093Z,7.00
2023-03-17T05:01:41.152Z,7.00
2023-03-17T05:02:43.957Z,7.00
2023-03-17T05:03:45.955Z,7.00
2023-03-17T05:04:48.059Z,7.00
2023-03-17T05:05:50.728Z,7.00
2023-03-17T05:06:53.087Z,7.00
2023-03-17T05:07:55.485Z,7.00
2023-03-17T05:08:57.294Z,7.10
2023-03-17T05:09:59.035Z,7.00
2023-03-17T05:11:01.227Z,7.10
2023-03-17T05:12:03.231Z,7.10
2023-03-17T05:13:05.966Z,7.10
2023-03-17T05:14:07.823Z,7.10
2023-03-17T05:15:10.322Z,7.10
2023-03-17T05:16:12.355Z,7.10
2023-03-17T05:17:16.918Z,7.10
2023-03-17T05:18:21.229Z,7.10
2023-03-17T05:19:23.296Z,7.10
2023-03-17T05:20:25.168Z,7.10
2023-03-17T05:21:27.110Z,7.10
2023-03-17T05:22:28.991Z,7.10
2023-03-17T05:23:30.945Z,7.00
2023-03-17T05:24:34.054Z,7.00
2023-03-17T05:25:36.842Z,7.00
2023-03-17T05:26:38.968Z,7.00
2023-03-17T05:27:41.984Z,7.00
2023-03-17T05:28:43.886Z,7.00
2023-03-17T05:29:46.035Z,7.00
2023-03-17T05:30:49.261Z,7.00
2023-03-17T05:31:51.076Z,7.00
2023-03-17T05:32:53.027Z,7.00
2023-03-17T05:33:55.092Z,7.00
2023-03-17T05:34:57.264Z,7.00
2023-03-17T05:36:00.575Z,7.00
2023-03-17T05:37:03.474Z,7.00
2023-03-17T05:38:05.390Z,7.00
2023-03-17T05:39:08.003Z,7.00
2023-03-17T05:40:12.326Z,7.00
2023-03-17T05:41:14.139Z,7.00
2023-03-17T05:42:17.001Z,6.90
2023-03-17T05:43:20.240Z,6.90
2023-03-17T05:44:22.439Z,6.90
2023-03-17T05:45:24.511Z,6.90
2023-03-17T05:46:26.746Z,6.90
2023-03-17T05:47:28.680Z,6.90
2023-03-17T05:48:30.506Z,6.90
2023-03-17T05:49:32.427Z,6.90
2023-03-17T05:50:34.637Z,6.80
2023-03-17T05:51:37.167Z,6.80
2023-03-17T05:52:39.133Z,6.80
2023-03-17T05:53:41.781Z,6.80
2023-03-17T05:54:46.224Z,6.80
2023-03-17T05:55:48.214Z,6.80
2023-03-17T05:56:51.012Z,6.80
2023-03-17T05:57:53.248Z,6.80
2023-03-17T05:58:56.415Z,6.90
2023-03-17T05:59:58.160Z,6.90
2023-03-17T06:01:00.534Z,6.90
2023-03-17T06:02:03.039Z,6.90
2023-03-17T06:03:05.210Z,6.90
2023-03-17T06:04:07.798Z,6.90
2023-03-17T06:05:09.764Z,6.90
2023-03-17T06:06:12.521Z,6.90
2023-03-17T06:07:15.366Z,6.90
2023-03-17T06:08:17.482Z,7.00
2023-03-17T06:09:19.660Z,7.00
2023-03-17T06:10:21.923Z,7.00
2023-03-17T06:11:24.629Z,7.00
2023-03-17T06:12:27.065Z,7.00
2023-03-17T06:13:29.161Z,7.00
2023-03-17T06:14:31.606Z,7.00
2023-03-17T06:15:34.389Z,7.00
2023-03-17T06:16:36.847Z,7.00
2023-03-17T06:17:38.994Z,7.00
2023-03-17T06:18:41.260Z,7.00
2023-03-17T06:19:43.842Z,7.00
2023-03-17T06:20:45.796Z,7.00
2023-03-17T06:21:49.347Z,7.00
2023-03-17T06:23:03.417Z,7.00
2023-03-17T06:24:06.947Z,7.10
2023-03-17T06:25:10.929Z,7.10
2023-03-17T06:26:12.863Z,7.10
2023-03-17T06:27:14.976Z,7.10
2023-03-17T06:28:17.233Z,7.10
2023-03-17T06:29:20.056Z,7.10
2023-03-17T06:30:22.591Z,7.10
2023-03-17T06:31:24.557Z,7.10
2023-03-17T06:32:27.264Z,7.10
2023-03-17T06:33:29.192Z,7.10
2023-03-17T06:34:32.378Z,7.10
2023-03-17T06:35:35.150Z,7.10
2023-03-17T06:36:39.125Z,7.10
2023-03-17T06:37:41.750Z,7.10
2023-03-17T06:38:46.585Z,7.10
2023-03-17T06:39:48.434Z,7.10
2023-03-17T06:40:50.619Z,7.10
2023-03-17T06:41:52.473Z,7.10
2023-03-17T06:42:58.219Z,7.10
2023-03-17T06:44:00.022Z,7.20
2023-03-17T06:45:09.536Z,7.20
2023-03-17T06:46:11.514Z,7.20
2023-03-17T06:47:13.533Z,7.20
2023-03-17T06:48:15.394Z,7.20
2023-03-17T06:49:17.219Z,7.20
2023-03-17T06:50:19.062Z,7.20
2023-03-17T06:51:20.932Z,7.20
2023-03-17T06:52:22.868Z,7.20
2023-03-17T06:53:24.721Z,7.20
2023-03-17T06:54:26.774Z,7.20
2023-03-17T06:55:30.421Z,7.30
2023-03-17T06:56:33.054Z,7.30
2023-03-17T06:57:36.239Z,7.30
2023-03-17T06:58:38.035Z,7.30
2023-03-17T06:59:40.441Z,7.30
2023-03-17T07:00:43.146Z,7.30
2023-03-17T07:01:45.471Z,7.30
2023-03-17T07:02:47.436Z,7.40
2023-03-17T07:03:49.695Z,7.30
2023-03-17T07:04:52.078Z,7.40
2023-03-17T07:05:54.760Z,7.40
2023-03-17T07:06:56.921Z,7.40
2023-03-17T07:07:59.023Z,7.40
2023-03-17T07:09:02.246Z,7.40
2023-03-17T07:10:07.311Z,7.50
2023-03-17T07:11:09.852Z,7.50
2023-03-17T07:12:12.055Z,7.50
2023-03-17T07:13:14.296Z,7.60
2023-03-17T07:14:16.364Z,7.60
2023-03-17T07:15:18.944Z,7.60
2023-03-17T07:16:21.609Z,7.70
2023-03-17T07:17:23.902Z,7.70
2023-03-17T07:18:25.999Z,7.80
2023-03-17T07:19:28.124Z,7.80
2023-03-17T07:20:30.651Z,7.80
2023-03-17T07:21:32.558Z,7.90
2023-03-17T07:22:34.410Z,7.90
2023-03-17T07:23:36.516Z,7.90
2023-03-17T07:24:38.688Z,8.00
2023-03-17T07:25:43.926Z,8.10
2023-03-17T07:26:46.145Z,8.10
2023-03-17T07:27:48.307Z,8.10
2023-03-17T07:28:50.110Z,8.10
2023-03-17T07:29:52.758Z,8.20
2023-03-17T07:30:54.794Z,8.20
2023-03-17T07:31:57.173Z,8.20
2023-03-17T07:32:58.971Z,8.30
2023-03-17T07:34:00.883Z,8.30
2023-03-17T07:35:05.278Z,8.40
2023-03-17T07:36:09.281Z,8.40
2023-03-17T07:37:12.476Z,8.50
2023-03-17T07:38:16.937Z,8.50
2023-03-17T07:39:21.207Z,8.50
2023-03-17T07:40:24.107Z,8.60
2023-03-17T07:41:26.037Z,8.60
2023-03-17T07:42:29.226Z,8.60
2023-03-17T07:43:32.574Z,8.70
2023-03-17T07:44:34.608Z,8.70
2023-03-17T07:45:36.906Z,8.70
2023-03-17T07:46:39.123Z,8.80
2023-03-17T07:47:42.023Z,8.80
2023-03-17T07:48:44.899Z,8.80
2023-03-17T07:49:46.881Z,8.80
2023-03-17T07:50:48.839Z,8.80
2023-03-17T07:51:50.593Z,8.90
2023-03-17T07:52:52.484Z,8.90
2023-03-17T07:54:03.918Z,8.90
2023-03-17T07:55:16.536Z,8.90
2023-03-17T07:56:18.379Z,8.90
2023-03-17T07:57:21.310Z,9.00
2023-03-17T07:58:23.632Z,9.00
2023-03-17T07:59:25.549Z,9.00
2023-03-17T08:00:29.174Z,9.10
2023-03-17T08:01:31.625Z,9.10
2023-03-17T08:02:33.529Z,9.10
2023-03-17T08:03:38.165Z,9.10
2023-03-17T08:04:43.924Z,9.20
2023-03-17T08:05:47.155Z,9.20
2023-03-17T08:06:49.369Z,9.20
2023-03-17T08:07:51.283Z,9.30
2023-03-17T08:08:54.610Z,9.30
2023-03-17T08:09:56.574Z,9.30
2023-03-17T08:11:03.752Z,9.30
2023-03-17T08:12:06.800Z,9.40
2023-03-17T08:13:08.578Z,9.40
2023-03-17T08:14:13.243Z,9.40
2023-03-17T08:15:15.175Z,9.40
2023-03-17T08:16:17.545Z,9.50
2023-03-17T08:17:19.894Z,9.50
2023-03-17T08:18:22.312Z,9.50
2023-03-17T08:19:24.475Z,9.60
2023-03-17T08:20:26.320Z,9.70
2023-03-17T08:21:28.204Z,9.70
2023-03-17T08:22:30.218Z,9.80
2023-03-17T08:23:32.576Z,9.90
2023-03-17T08:24:34.761Z,9.90
2023-03-17T08:25:37.796Z,10.00
2023-03-17T08:26:39.740Z,10.00
2023-03-17T08:27:42.416Z,10.10
2023-03-17T08:28:44.768Z,10.10
2023-03-17T08:29:47.120Z,10.20
2023-03-17T08:30:50.555Z,10.20
2023-03-17T08:31:52.913Z,10.30
2023-03-17T08:32:56.266Z,10.30
2023-03-17T08:33:59.014Z,10.40
2023-03-17T08:35:01.425Z,10.40
2023-03-17T08:36:07.370Z,10.40
2023-03-17T08:37:11.367Z,10.40
2023-03-17T08:38:13.710Z,10.50
2023-03-17T08:39:15.819Z,10.50
2023-03-17T08:40:19.977Z,10.60
2023-03-17T08:41:24.842Z,10.60
2023-03-17T08:42:26.658Z,10.70
2023-03-17T08:43:28.878Z,10.80
2023-03-17T08:44:32.410Z,10.80
2023-03-17T08:45:34.760Z,10.90
2023-03-17T08:46:37.256Z,11.00
2023-03-17T08:47:40.210Z,11.10
2023-03-17T08:48:42.703Z,11.20
2023-03-17T08:49:44.781Z,11.30
2023-03-17T08:50:47.858Z,11.40
2023-03-17T08:51:49.943Z,11.50
2023-03-17T08:52:53.066Z,11.60
2023-03-17T08:53:56.218Z,11.60
2023-03-17T08:54:58.810Z,11.80
2023-03-17T08:56:01.631Z,11.80
2023-03-17T08:57:04.204Z,11.90
2023-03-17T08:58:06.076Z,12.00
2023-03-17T08:59:09.780Z,12.10
2023-03-17T09:00:17.590Z,12.20
2023-03-17T09:01:21.523Z,12.40
2023-03-17T09:02:23.701Z,12.40
2023-03-17T09:03:25.471Z,12.50
2023-03-17T09:04:28.044Z,12.60
2023-03-17T09:05:30.525Z,12.80
2023-03-17T09:06:33.080Z,12.90
2023-03-17T09:07:35.103Z,13.00
2023-03-17T09:08:40.094Z,13.10
2023-03-17T09:09:42.549Z,13.20
2023-03-17T09:10:45.988Z,13.30
2023-03-17T09:11:49.963Z,13.40
2023-03-17T09:12:51.795Z,13.50
2023-03-17T09:13:54.568Z,13.60
2023-03-17T09:14:56.818Z,13.80
2023-03-17T09:15:58.588Z,14.00
2023-03-17T09:17:01.741Z,14.20
2023-03-17T09:18:04.902Z,14.40
2023-03-17T09:19:07.033Z,14.60
2023-03-17T09:20:11.532Z,14.80
2023-03-17T09:21:15.434Z,14.90
2023-03-17T09:22:21.402Z,15.10
2023-03-17T09:23:23.507Z,15.20
2023-03-17T09:24:25.506Z,15.30
2023-03-17T09:25:27.554Z,15.30
2023-03-17T09:26:29.481Z,15.30
2023-03-17T09:27:31.406Z,15.30
2023-03-17T09:28:34.213Z,15.40
2023-03-17T09:29:36.110Z,15.50
2023-03-17T09:30:42.587Z,15.50
2023-03-17T09:31:44.710Z,15.60
2023-03-17T09:32:46.605Z,15.70
2023-03-17T09:33:48.546Z,15.80
2023-03-17T09:34:51.575Z,15.80
2023-03-17T09:35:54.483Z,16.00
2023-03-17T09:36:56.789Z,16.00
2023-03-17T09:37:58.893Z,16.10
2023-03-17T09:39:01.053Z,16.20
2023-03-17T09:40:08.623Z,16.20
2023-03-17T09:41:31.114Z,16.40
2023-03-17T09:42:33.424Z,16.70
2023-03-17T09:43:41.450Z,17.00
2023-03-17T09:44:55.976Z,17.40
2023-03-17T09:46:23.844Z,17.80
2023-03-17T09:47:48.142Z,18.10
2023-03-17T09:49:15.047Z,18.50
2023-03-17T09:50:24.243Z,18.80
2023-03-17T09:51:26.656Z,19.30
2023-03-17T09:52:31.675Z,19.70
2023-03-17T09:53:54.968Z,20.00
2023-03-17T09:54:57.935Z,20.20
2023-03-17T09:56:16.253Z,20.10
2023-03-17T09:57:40.796Z,19.90
2023-03-17T09:58:52.218Z,19.50
2023-03-17T10:00:06.387Z,19.20
2023-03-17T10:01:10.592Z,18.80
2023-03-17T10:02:21.839Z,18.50
2023-03-17T10:03:25.912Z,18.30
2023-03-17T10:04:28.312Z,18.10
2023-03-17T10:05:35.066Z,17.90
2023-03-17T10:06:43.897Z,17.70
2023-03-17T10:08:06.329Z,17.50
2023-03-17T10:09:27.881Z,17.30
2023-03-17T10:10:40.767Z,17.20
2023-03-17T10:11:47.107Z,17.00
2023-03-17T10:12:59.975Z,16.90
2023-03-17T10:14:24.002Z,16.90
2023-03-17T10:15:38.925Z,16.90
2023-03-17T10:16:49.766Z,16.80
2023-03-17T10:17:52.459Z,16.90
2023-03-17T10:19:02.913Z,17.00
2023-03-17T10:20:28.813Z,17.10
2023-03-17T10:21:34.386Z,17.30
2023-03-17T10:22:58.086Z,17.50
2023-03-17T10:24:01.798Z,17.70
2023-03-17T10:25:18.943Z,17.80
2023-03-17T10:26:53.298Z,18.00
2023-03-17T10:28:24.716Z,18.30
2023-03-17T10:29:27.599Z,18.80
2023-03-17T10:30:34.007Z,19.50
2023-03-17T10:31:39.351Z,20.10
2023-03-17T10:32:42.090Z,20.60
2023-03-17T10:33:48.500Z,21.00
2023-03-17T10:34:50.390Z,21.40
2023-03-17T10:35:52.340Z,21.90
2023-03-17T10:37:18.573Z,22.30
2023-03-17T10:38:24.318Z,22.60
2023-03-17T10:39:27.307Z,22.90
2023-03-17T10:40:31.602Z,23.30
2023-03-17T10:41:36.809Z,23.50
2023-03-17T10:43:08.924Z,23.80
2023-03-17T10:44:22.989Z,23.80
2023-03-17T10:45:32.172Z,23.90
2023-03-17T10:46:34.539Z,23.80
2023-03-17T10:47:45.041Z,23.90
2023-03-17T10:48:52.987Z,24.10
2023-03-17T10:49:57.586Z,24.30
2023-03-17T10:50:59.564Z,24.50
2023-03-17T10:52:16.994Z,24.70
2023-03-17T10:53:28.595Z,24.80
2023-03-17T10:54:35.789Z,25.10
2023-03-17T10:55:44.801Z,25.30
2023-03-17T10:56:49.576Z,25.30
2023-03-17T10:58:21.697Z,25.20
2023-03-17T11:00:35.437Z,24.60
2023-03-17T11:01:49.992Z,24.10
2023-03-17T11:02:58.678Z,23.60
2023-03-17T11:04:02.921Z,23.00
2023-03-17T11:05:17.902Z,22.70
2023-03-17T11:06:32.205Z,22.40
2023-03-17T11:07:41.669Z,22.10
2023-03-17T11:09:14.343Z,21.90
2023-03-17T11:10:25.756Z,21.80
2023-03-17T11:11:41.762Z,21.60
2023-03-17T11:12:44.020Z,21.60
2023-03-17T11:13:45.859Z,21.60
2023-03-17T11:14:50.065Z,21.60
2023-03-17T11:16:08.548Z,21.50
2023-03-17T11:17:37.613Z,21.40
2023-03-17T11:18:40.797Z,21.20
2023-03-17T11:20:16.934Z,20.90
2023-03-17T11:21:29.399Z,20.60
2023-03-17T11:22:40.498Z,20.20
2023-03-17T11:23:42.494Z,19.90
2023-03-17T11:25:05.285Z,19.50
2023-03-17T11:26:40.508Z,19.40
2023-03-17T11:27:45.091Z,19.20
2023-03-17T11:29:12.033Z,19.10
2023-03-17T11:30:38.059Z,18.90
2023-03-17T11:31:57.688Z,18.80
2023-03-17T11:33:28.697Z,18.80
2023-03-17T11:34:52.394Z,18.80
2023-03-17T11:36:39.648Z,18.80
2023-03-17T11:37:59.248Z,18.70
2023-03-17T11:39:11.638Z,18.60
2023-03-17T11:40:46.430Z,18.60
2023-03-17T11:42:24.118Z,18.60
2023-03-17T11:43:25.868Z,18.60
2023-03-17T11:44:47.761Z,18.50
2023-03-17T11:45:58.804Z,18.40
2023-03-17T11:47:06.559Z,18.40
2023-03-17T11:48:27.805Z,18.40
2023-03-17T11:49:40.773Z,18.40
2023-03-17T11:51:22.991Z,18.40
2023-03-17T11:52:56.553Z,18.40
2023-03-17T11:54:29.672Z,18.30
2023-03-17T11:55:48.886Z,18.30
2023-03-17T11:56:54.360Z,18.30
2023-03-17T11:58:03.050Z,18.30
2023-03-17T11:59:24.329Z,18.30
2023-03-17T12:00:36.617Z,18.20
2023-03-17T12:02:16.831Z,18.20
2023-03-17T12:04:06.192Z,18.20
2023-03-17T12:05:20.998Z,18.20
2023-03-17T12:06:31.755Z,18.20
2023-03-17T12:07:37.473Z,18.20
2023-03-17T12:08:52.617Z,18.20
2023-03-17T12:10:08.036Z,18.10
2023-03-17T12:11:14.834Z,18.10
2023-03-17T12:12:22.949Z,18.00
2023-03-17T12:13:40.279Z,18.00
2023-03-17T12:14:48.853Z,18.00
2023-03-17T12:15:56.683Z,17.90
2023-03-17T12:17:49.022Z,17.90
2023-03-17T12:18:57.983Z,17.90
2023-03-17T12:20:25.699Z,17.90
2023-03-17T12:21:54.240Z,17.90
2023-03-17T12:23:05.814Z,17.90
2023-03-17T12:24:31.014Z,17.90
2023-03-17T12:25:46.001Z,17.90
2023-03-17T12:26:54.913Z,17.90
2023-03-17T12:28:23.230Z,18.00
2023-03-17T12:29:50.198Z,18.00
2023-03-17T12:31:06.013Z,18.00
2023-03-17T12:32:14.705Z,17.90
2023-03-17T12:33:29.141Z,17.90
2023-03-17T12:35:02.686Z,17.90
2023-03-17T12:36:07.771Z,17.90
2023-03-17T12:37:10.192Z,17.80
2023-03-17T12:38:20.817Z,17.80
2023-03-17T12:39:34.353Z,17.70
2023-03-17T12:40:53.125Z,17.70
2023-03-17T12:42:07.013Z,17.70
2023-03-17T12:43:17.810Z,17.70
2023-03-17T12:44:57.742Z,17.70
2023-03-17T12:46:17.672Z,17.70
2023-03-17T12:47:29.739Z,17.60
2023-03-17T12:48:46.069Z,17.60
2023-03-17T12:50:25.644Z,17.60
2023-03-17T12:51:46.831Z,17.60
2023-03-17T12:53:21.547Z,17.50
2023-03-17T12:54:32.947Z,17.50
2023-03-17T12:55:36.280Z,17.50
2023-03-17T12:56:46.481Z,17.50
2023-03-17T12:58:03.356Z,17.50
2023-03-17T12:59:14.564Z,17.50
2023-03-17T13:00:34.303Z,17.50
2023-03-17T13:01:46.750Z,17.50
2023-03-17T13:03:08.465Z,17.60
2023-03-17T13:04:26.508Z,17.60
2023-03-17T13:05:32.936Z,17.60
2023-03-17T13:07:00.915Z,17.60
2023-03-17T13:08:06.876Z,17.60
2023-03-17T13:09:43.455Z,17.60
2023-03-17T13:10:49.203Z,17.60
2023-03-17T13:11:51.004Z,17.50
2023-03-17T13:13:05.750Z,17.50
2023-03-17T13:14:42.659Z,17.50
2023-03-17T13:15:44.457Z,17.40
2023-03-17T13:16:49.695Z,17.40
2023-03-17T13:18:16.328Z,17.40
2023-03-17T13:19:22.877Z,17.40
2023-03-17T13:20:37.963Z,17.40
2023-03-17T13:21:45.346Z,17.40
2023-03-17T13:23:13.759Z,17.40
2023-03-17T13:24:15.874Z,17.40
2023-03-17T13:25:27.524Z,17.40
2023-03-17T13:27:04.622Z,17.40
2023-03-17T13:28:12.287Z,17.40
2023-03-17T13:29:26.873Z,17.40
2023-03-17T13:30:29.613Z,17.40
2023-03-17T13:31:37.033Z,17.40
2023-03-17T13:32:39.091Z,17.40
2023-03-17T13:33:45.662Z,17.40
2023-03-17T13:34:53.019Z,17.50
2023-03-17T13:36:09.588Z,17.50
2023-03-17T13:37:25.718Z,17.50
2023-03-17T13:38:48.559Z,17.50
2023-03-17T13:40:10.255Z,17.50
2023-03-17T13:41:37.837Z,17.60
2023-03-17T13:43:03.997Z,17.60
2023-03-17T13:44:08.706Z,17.60
2023-03-17T13:45:32.296Z,17.50
2023-03-17T13:46:44.157Z,17.50
2023-03-17T13:47:47.798Z,17.50
2023-03-17T13:48:50.120Z,17.50
2023-03-17T13:49:59.028Z,17.40
2023-03-17T13:51:27.286Z,17.40
2023-03-17T13:52:34.264Z,17.40
2023-03-17T13:53:57.932Z,17.40
2023-03-17T13:55:25.979Z,17.40
2023-03-17T13:56:50.348Z,17.30
2023-03-17T13:58:11.604Z,17.30
2023-03-17T13:59:53.970Z,17.30
2023-03-17T14:01:01.715Z,17.30
2023-03-17T14:02:16.824Z,17.30
2023-03-17T14:03:30.568Z,17.40
2023-03-17T14:04:46.383Z,17.40
2023-03-17T14:05:50.838Z,17.40
2023-03-17T14:06:56.849Z,17.40
2023-03-17T14:08:02.065Z,17.40
2023-03-17T14:09:30.810Z,17.50
2023-03-17T14:10:34.716Z,17.50
2023-03-17T14:11:39.138Z,17.50
2023-03-17T14:13:03.148Z,17.50
2023-03-17T14:14:32.624Z,17.40
2023-03-17T14:15:48.062Z,17.40
2023-03-17T14:16:57.831Z,17.40
2023-03-17T14:18:08.959Z,17.40
2023-03-17T14:19:21.843Z,17.50
2023-03-17T14:20:28.319Z,17.50
2023-03-17T14:21:32.420Z,17.50
2023-03-17T14:22:45.792Z,17.50
2023-03-17T14:23:59.432Z,17.60
2023-03-17T14:25:01.929Z,17.50
2023-03-17T14:26:04.086Z,17.60
2023-03-17T14:27:09.793Z,17.60
2023-03-17T14:28:17.215Z,17.60
2023-03-17T14:29:24.253Z,17.60
2023-03-17T14:30:28.810Z,17.60
2023-03-17T14:31:31.038Z,17.60
2023-03-17T14:32:33.121Z,17.60
2023-03-17T14:33:41.010Z,17.70
2023-03-17T14:34:45.380Z,17.60
2023-03-17T14:35:50.977Z,17.70
2023-03-17T14:36:52.749Z,17.60